createdAt,value
2023-01-20T00:02:09.528Z,172.70
2023-01-20T00:07:16.791Z,156.50
2023-01-20T00:12:23.700Z,179.40
2023-01-20T00:17:30.704Z,142.30
2023-01-20T00:22:42.473Z,151.40
2023-01-20T00:27:49.439Z,119.10
2023-01-20T00:32:56.485Z,183.50
2023-01-20T00:38:03.497Z,165.70
2023-01-20T00:43:12.677Z,184.40
2023-01-20T00:48:19.615Z,175.30
2023-01-20T00:53:26.375Z,183.20
2023-01-20T00:58:33.230Z,207.40
2023-01-20T01:03:40.172Z,197.10
2023-01-20T01:08:58.647Z,185.50
2023-01-20T01:14:07.110Z,203.60
2023-01-20T01:19:14.592Z,204.00
2023-01-20T01:24:22.046Z,213.50
2023-01-20T01:29:29.179Z,228.50
2023-01-20T01:34:36.273Z,225.30
2023-01-20T01:39:43.363Z,271.30
2023-01-20T01:45:30.312Z,267.10
2023-01-20T01:50:51.637Z,243.00
2023-01-20T01:56:03.228Z,232.50
2023-01-20T02:01:10.324Z,191.10
2023-01-20T02:06:19.533Z,250.60
2023-01-20T02:11:26.759Z,244.00
2023-01-20T02:16:44.977Z,261.20
2023-01-20T02:22:23.667Z,255.50
2023-01-20T02:28:01.735Z,270.80
2023-01-20T02:33:29.993Z,256.50
2023-01-20T02:39:05.444Z,249.60
2023-01-20T02:44:28.432Z,258.90
2023-01-20T02:49:48.587Z,261.80
2023-01-20T02:55:16.774Z,287.10
2023-01-20T03:00:34.565Z,241.40
2023-01-20T03:05:58.247Z,260.60
2023-01-20T03:11:10.259Z,263.60
2023-01-20T03:16:24.526Z,271.40
2023-01-20T03:21:37.928Z,273.20
2023-01-20T03:32:10.826Z,289.40
2023-01-20T03:37:27.357Z,298.00
2023-01-20T03:42:42.507Z,301.60
2023-01-20T03:48:06.492Z,287.70
2023-01-20T03:53:27.809Z,287.30
2023-01-20T03:58:42.570Z,251.40
2023-01-20T04:04:02.965Z,271.10
2023-01-20T04:09:23.312Z,260.20
2023-01-20T04:14:34.054Z,241.50
2023-01-20T04:19:46.003Z,240.00
2023-01-20T04:25:05.871Z,228.50
2023-01-20T04:30:16.668Z,230.60
2023-01-20T04:35:32.718Z,224.00
2023-01-20T04:40:43.418Z,226.10
2023-01-20T04:45:57.281Z,236.30
2023-01-20T04:51:13.358Z,235.00
2023-01-20T04:56:28.333Z,219.60
2023-01-20T05:01:39.982Z,223.80
2023-01-20T05:06:51.566Z,225.70
2023-01-20T05:12:12.609Z,272.10
2023-01-20T05:17:21.226Z,249.20
2023-01-20T05:22:33.874Z,251.30
2023-01-20T05:27:45.449Z,265.00
2023-01-20T05:32:54.115Z,263.20
2023-01-20T05:38:03.665Z,284.90
2023-01-20T05:43:14.848Z,301.30
2023-01-20T05:48:24.775Z,290.40
2023-01-20T05:53:35.569Z,282.30
2023-01-20T05:58:45.426Z,277.60
2023-01-20T06:03:57.810Z,274.70
2023-01-20T06:09:09.147Z,265.80
2023-01-20T06:14:20.875Z,309.70
2023-01-20T06:19:30.411Z,276.90
2023-01-20T06:24:46.358Z,272.70
2023-01-20T06:29:54.054Z,231.70
2023-01-20T06:35:01.191Z,214.30
2023-01-20T06:40:10.603Z,207.30
2023-01-20T06:45:17.952Z,219.30
2023-01-20T06:50:24.963Z,198.50
2023-01-20T06:55:31.930Z,204.00
2023-01-20T07:00:39.115Z,200.20
2023-01-20T07:05:46.305Z,201.90
2023-01-20T07:10:53.262Z,204.30
2023-01-20T07:16:00.315Z,191.50
2023-01-20T07:21:07.978Z,202.70
2023-01-20T07:26:21.176Z,232.60
2023-01-20T07:31:35.567Z,227.10
2023-01-20T07:36:43.910Z,213.70
2023-01-20T07:41:57.710Z,219.20
2023-01-20T07:47:06.306Z,256.90
2023-01-20T07:52:17.253Z,270.90
2023-01-20T07:57:26.098Z,285.50
2023-01-20T08:02:40.309Z,290.10
2023-01-20T08:07:51.333Z,264.70
2023-01-20T08:13:02.981Z,254.30
2023-01-20T08:18:10.200Z,260.20
2023-01-20T08:23:17.906Z,278.60
2023-01-20T08:28:25.512Z,324.20
2023-01-20T08:33:34.301Z,319.90
2023-01-20T08:38:42.325Z,285.70
2023-01-20T08:43:50.243Z,277.00
2023-01-20T08:48:59.368Z,292.30
2023-01-20T08:54:06.337Z,279.30
2023-01-20T08:59:15.360Z,301.60
2023-01-20T09:04:25.650Z,283.80
2023-01-20T09:09:33.059Z,286.00
2023-01-20T09:14:41.021Z,261.70
2023-01-20T09:19:47.847Z,250.70
2023-01-20T09:24:54.875Z,262.20
2023-01-20T09:30:01.798Z,260.20
2023-01-20T09:35:10.559Z,242.90
2023-01-20T09:40:38.980Z,211.60
2023-01-20T09:45:54.586Z,220.10
2023-01-20T09:51:26.892Z,201.30
2023-01-20T09:56:39.011Z,176.00
2023-01-20T10:01:53.994Z,164.30
2023-01-20T10:07:10.232Z,181.80
2023-01-20T10:12:20.879Z,170.90
2023-01-20T10:17:33.681Z,149.20
2023-01-20T10:22:46.732Z,144.80
2023-01-20T10:28:10.069Z,129.40
2023-01-20T10:33:22.344Z,140.10
2023-01-20T10:38:37.839Z,95.40
2023-01-20T10:43:45.594Z,89.40
2023-01-20T10:49:21.368Z,109.20
2023-01-20T10:54:40.095Z,109.80
2023-01-20T10:59:51.428Z,105.10
2023-01-20T11:05:03.335Z,101.50
2023-01-20T11:15:28.140Z,109.10
2023-01-20T11:20:38.134Z,114.00
2023-01-20T11:25:54.589Z,109.30
2023-01-20T11:31:02.185Z,119.00
2023-01-20T11:36:18.742Z,105.70
2023-01-20T11:41:28.729Z,102.10
2023-01-20T11:46:46.298Z,102.40
2023-01-20T11:52:06.608Z,101.10
2023-01-20T11:57:18.057Z,104.50
2023-01-20T12:02:33.431Z,97.70
2023-01-20T12:07:46.698Z,77.80
2023-01-20T12:13:05.253Z,77.90
2023-01-20T12:18:20.725Z,63.00
2023-01-20T12:23:46.113Z,70.80
2023-01-20T12:29:01.025Z,82.10
2023-01-20T12:34:13.412Z,92.40
2023-01-20T12:39:40.481Z,97.30
2023-01-20T12:44:54.754Z,99.40
2023-01-20T12:50:18.750Z,95.60
2023-01-20T12:55:45.333Z,88.60
2023-01-20T13:01:22.167Z,68.60
2023-01-20T13:06:43.726Z,73.40
2023-01-20T13:12:05.476Z,80.20
2023-01-20T13:17:25.931Z,81.20
2023-01-20T13:22:35.899Z,89.30
2023-01-20T13:27:43.041Z,96.10
2023-01-20T13:32:51.509Z,109.40
2023-01-20T13:38:01.530Z,92.70
2023-01-20T13:43:38.654Z,81.50
2023-01-20T13:49:16.326Z,82.50
2023-01-20T13:54:48.069Z,64.50
2023-01-20T13:59:55.523Z,66.10
2023-01-20T14:05:02.662Z,67.00
2023-01-20T14:10:15.618Z,60.50
2023-01-20T14:15:37.091Z,75.40
2023-01-20T14:20:46.589Z,65.40
2023-01-20T14:26:02.251Z,65.10
2023-01-20T14:31:21.912Z,57.80
2023-01-20T14:36:31.544Z,55.40
2023-01-20T14:41:48.981Z,65.60
2023-01-20T14:46:58.217Z,59.30
2023-01-20T14:52:08.047Z,61.80
2023-01-20T14:57:25.066Z,76.40
2023-01-20T15:02:35.156Z,65.70
2023-01-20T15:07:42.166Z,67.30
2023-01-20T15:12:57.157Z,70.10
2023-01-20T15:18:23.095Z,69.30
2023-01-20T15:23:39.452Z,67.90
2023-01-20T15:28:46.895Z,71.60
2023-01-20T15:33:53.974Z,85.90
2023-01-20T15:39:01.003Z,85.70
2023-01-20T15:44:08.615Z,72.80
2023-01-20T15:49:16.164Z,77.30
2023-01-20T15:54:23.084Z,72.30
2023-01-20T15:59:31.552Z,67.10
2023-01-20T16:04:38.712Z,71.50
2023-01-20T16:09:46.810Z,83.20
2023-01-20T16:14:53.939Z,89.50
2023-01-20T16:20:02.438Z,97.70
2023-01-20T16:25:11.788Z,97.00
2023-01-20T16:30:21.909Z,104.20
2023-01-20T16:35:31.866Z,115.80
2023-01-20T16:40:45.519Z,124.80
2023-01-20T16:45:55.419Z,130.50
2023-01-20T16:51:05.547Z,126.40
2023-01-20T16:56:16.032Z,124.90
2023-01-20T17:01:24.768Z,119.80
2023-01-20T17:06:38.801Z,141.60
2023-01-20T17:11:47.375Z,163.60
2023-01-20T17:16:56.112Z,158.40
2023-01-20T17:22:03.162Z,169.30
2023-01-20T17:27:10.234Z,180.10
2023-01-20T17:32:19.088Z,182.10
2023-01-20T17:37:26.907Z,179.70
2023-01-20T17:42:35.956Z,180.80
2023-01-20T17:47:43.023Z,177.10
2023-01-20T17:52:50.245Z,165.00
2023-01-20T17:57:57.198Z,165.00
2023-01-20T18:03:08.735Z,165.50
2023-01-20T18:08:16.965Z,148.40
2023-01-20T18:13:23.918Z,147.30
2023-01-20T18:18:30.821Z,158.80
2023-01-20T18:23:39.266Z,154.10
2023-01-20T18:28:48.023Z,168.80
2023-01-20T18:33:57.019Z,156.70
2023-01-20T18:39:07.143Z,152.80
2023-01-20T18:44:14.941Z,146.00
2023-01-20T18:49:22.214Z,154.10
2023-01-20T18:54:32.921Z,147.00
2023-01-20T18:59:41.919Z,147.90
2023-01-20T19:04:48.899Z,150.80
2023-01-20T19:09:56.529Z,166.90
2023-01-20T19:15:03.571Z,159.70
2023-01-20T19:20:12.645Z,162.30
2023-01-20T19:25:19.983Z,172.40
2023-01-20T19:30:27.106Z,170.00
2023-01-20T19:35:34.867Z,173.40
2023-01-20T19:40:42.018Z,181.30
2023-01-20T19:45:49.541Z,178.70
2023-01-20T19:50:56.461Z,187.30
2023-01-20T19:56:08.965Z,175.80
2023-01-20T20:01:18.142Z,168.50
2023-01-20T20:06:30.938Z,168.50
2023-01-20T20:11:39.560Z,165.80
2023-01-20T20:16:47.128Z,170.70
2023-01-20T20:21:55.260Z,180.90
2023-01-20T20:27:02.286Z,195.70
2023-01-20T20:32:09.766Z,208.20
2023-01-20T20:37:16.710Z,190.90
2023-01-20T20:42:23.752Z,207.40
2023-01-20T20:47:33.238Z,187.10
2023-01-20T20:52:41.017Z,200.00
2023-01-20T20:57:48.014Z,182.90
2023-01-20T21:02:56.922Z,190.30
2023-01-20T21:08:29.002Z,191.00
2023-01-20T21:14:04.493Z,191.50
2023-01-20T21:19:46.673Z,205.30
2023-01-20T21:25:18.012Z,201.30
2023-01-20T21:30:37.351Z,208.60
2023-01-20T21:35:44.430Z,219.60
2023-01-20T21:41:01.445Z,202.80
2023-01-20T21:46:08.617Z,191.90
2023-01-20T21:51:32.720Z,184.40
2023-01-20T21:56:39.978Z,170.00
2023-01-20T22:01:47.263Z,173.50
2023-01-20T22:06:54.443Z,189.40
2023-01-20T22:12:01.718Z,187.20
2023-01-20T22:17:09.865Z,181.90
2023-01-20T22:22:17.127Z,202.10
2023-01-20T22:27:24.428Z,196.60
2023-01-20T22:32:31.723Z,172.80
2023-01-20T22:37:38.717Z,176.80
2023-01-20T22:42:46.085Z,160.50
2023-01-20T22:47:53.637Z,149.20
2023-01-20T22:53:00.767Z,158.70
2023-01-20T22:58:07.898Z,147.50
2023-01-20T23:03:14.948Z,161.60
2023-01-20T23:08:22.434Z,159.00
2023-01-20T23:13:30.140Z,146.70
2023-01-20T23:18:37.378Z,165.70
2023-01-20T23:23:44.774Z,150.80
2023-01-20T23:28:56.743Z,145.80
2023-01-20T23:34:11.865Z,152.20
2023-01-20T23:39:19.738Z,132.40
2023-01-20T23:44:32.875Z,139.20
2023-01-20T23:49:46.990Z,127.20
2023-01-20T23:54:54.780Z,123.20
